createdAt,value
2022-10-13T00:00:57.430Z,6.90
2022-10-13T00:03:24.263Z,6.32
2022-10-13T00:05:51.572Z,11.48
2022-10-13T00:08:21.046Z,5.60
2022-10-13T00:10:49.969Z,6.32
2022-10-13T00:13:20.147Z,6.28
2022-10-13T00:15:47.807Z,7.43
2022-10-13T00:18:15.284Z,7.85
2022-10-13T00:20:48.118Z,10.43
2022-10-13T00:23:15.885Z,9.57
2022-10-13T00:25:44.361Z,8.82
2022-10-13T00:28:12.104Z,11.15
2022-10-13T00:30:38.967Z,10.25
2022-10-13T00:33:05.768Z,9.13
2022-10-13T00:35:33.081Z,9.73
2022-10-13T00:37:59.843Z,8.52
2022-10-13T00:40:30.759Z,10.45
2022-10-13T00:42:57.333Z,13.55
2022-10-13T00:45:28.173Z,9.27
2022-10-13T00:48:01.249Z,11.43
2022-10-13T00:50:33.456Z,8.30
2022-10-13T00:53:03.174Z,8.90
2022-10-13T00:55:33.473Z,8.73
2022-10-13T00:58:05.436Z,7.20
2022-10-13T01:00:34.064Z,6.35
2022-10-13T01:03:02.191Z,7.78
2022-10-13T01:05:29.698Z,6.60
2022-10-13T01:07:57.340Z,8.90
2022-10-13T01:10:42.313Z,7.10
2022-10-13T01:13:31.924Z,7.20
2022-10-13T01:16:23.519Z,9.18
2022-10-13T01:19:19.752Z,5.47
2022-10-13T01:21:52.482Z,7.18
2022-10-13T01:24:40.645Z,6.70
2022-10-13T01:27:55.142Z,11.00
2022-10-13T01:30:22.963Z,7.03
2022-10-13T01:33:16.883Z,7.57
2022-10-13T01:35:43.441Z,9.07
2022-10-13T01:38:25.307Z,10.05
2022-10-13T01:41:10.238Z,6.82
2022-10-13T01:43:50.458Z,8.85
2022-10-13T01:46:32.360Z,6.78
2022-10-13T01:49:04.096Z,10.98
2022-10-13T01:51:32.501Z,7.72
2022-10-13T01:53:59.514Z,8.25
2022-10-13T01:56:26.342Z,10.70
2022-10-13T01:58:55.066Z,10.35
2022-10-13T02:01:40.176Z,9.15
2022-10-13T02:04:22.984Z,10.52
2022-10-13T02:06:55.668Z,7.78
2022-10-13T02:09:41.413Z,10.07
2022-10-13T02:12:26.380Z,6.05
2022-10-13T02:14:55.679Z,9.02
2022-10-13T02:17:22.915Z,7.68
2022-10-13T02:19:49.782Z,7.68
2022-10-13T02:22:17.705Z,5.53
2022-10-13T02:24:44.444Z,10.25
2022-10-13T02:27:11.060Z,10.63
2022-10-13T02:29:50.220Z,9.98
2022-10-13T02:32:17.225Z,11.35
2022-10-13T02:34:44.127Z,7.82
2022-10-13T02:37:11.235Z,8.73
2022-10-13T02:39:37.794Z,7.88
2022-10-13T02:42:04.626Z,11.18
2022-10-13T02:44:31.258Z,12.55
2022-10-13T02:46:57.966Z,8.18
2022-10-13T02:49:24.568Z,9.00
2022-10-13T02:51:51.164Z,9.05
2022-10-13T02:54:17.782Z,11.30
2022-10-13T02:56:44.359Z,10.68
2022-10-13T02:59:10.893Z,10.43
2022-10-13T03:01:41.270Z,8.07
2022-10-13T03:04:08.993Z,11.70
2022-10-13T03:06:35.577Z,12.68
2022-10-13T03:09:02.113Z,9.18
2022-10-13T03:11:28.689Z,9.70
2022-10-13T03:13:55.505Z,6.88
2022-10-13T03:16:22.285Z,9.23
2022-10-13T03:18:49.029Z,9.30
2022-10-13T03:21:15.606Z,8.70
2022-10-13T03:23:42.186Z,8.57
2022-10-13T03:26:09.869Z,8.55
2022-10-13T03:28:36.570Z,8.73
2022-10-13T03:31:08.679Z,9.38
2022-10-13T03:33:35.266Z,10.25
2022-10-13T03:36:03.454Z,16.13
2022-10-13T03:38:31.098Z,6.75
2022-10-13T03:40:57.724Z,12.90
2022-10-13T03:43:25.255Z,8.63
2022-10-13T03:45:59.295Z,6.65
2022-10-13T03:48:26.382Z,7.13
2022-10-13T03:50:53.273Z,14.65
2022-10-13T03:53:20.489Z,10.32
2022-10-13T03:55:55.781Z,9.40
2022-10-13T03:58:24.744Z,8.55
2022-10-13T04:00:53.535Z,9.68
2022-10-13T04:03:20.659Z,8.32
2022-10-13T04:05:47.869Z,10.80
2022-10-13T04:08:14.939Z,14.18
2022-10-13T04:10:42.381Z,10.77
2022-10-13T04:13:08.972Z,11.25
2022-10-13T04:15:39.102Z,8.13
2022-10-13T04:18:07.875Z,13.02
2022-10-13T04:20:38.080Z,11.07
2022-10-13T04:23:04.712Z,9.00
2022-10-13T04:25:31.463Z,7.97
2022-10-13T04:27:58.032Z,11.68
2022-10-13T04:30:24.632Z,7.93
2022-10-13T04:32:51.170Z,13.07
2022-10-13T04:35:17.706Z,10.15
2022-10-13T04:37:45.298Z,11.07
2022-10-13T04:40:12.587Z,8.65
2022-10-13T04:42:39.178Z,13.57
2022-10-13T04:45:06.495Z,8.60
2022-10-13T04:47:37.105Z,7.72
2022-10-13T04:50:04.321Z,9.10
2022-10-13T04:52:30.951Z,11.10
2022-10-13T04:54:57.930Z,12.50
2022-10-13T04:57:24.555Z,23.08
2022-10-13T04:59:51.119Z,8.98
2022-10-13T05:02:18.035Z,10.15
2022-10-13T05:04:44.960Z,10.23
2022-10-13T05:07:18.072Z,8.43
2022-10-13T05:09:45.747Z,12.00
2022-10-13T05:12:12.865Z,9.60
2022-10-13T05:14:39.379Z,11.43
2022-10-13T05:17:07.427Z,11.27
2022-10-13T05:19:34.066Z,12.25
2022-10-13T05:22:00.777Z,10.07
2022-10-13T05:24:38.916Z,6.93
2022-10-13T05:27:08.566Z,10.18
2022-10-13T05:29:35.407Z,13.70
2022-10-13T05:32:02.052Z,13.07
2022-10-13T05:34:28.675Z,11.90
2022-10-13T05:36:55.279Z,10.90
2022-10-13T05:39:22.500Z,12.43
2022-10-13T05:41:49.135Z,14.82
2022-10-13T05:44:20.790Z,14.30
2022-10-13T05:46:53.422Z,15.98
2022-10-13T05:49:20.100Z,11.30
2022-10-13T05:51:50.415Z,12.55
2022-10-13T05:54:25.075Z,10.30
2022-10-13T05:56:57.353Z,10.27
2022-10-13T05:59:27.520Z,14.98
2022-10-13T06:01:55.049Z,13.18
2022-10-13T06:04:31.687Z,9.82
2022-10-13T06:06:58.285Z,11.38
2022-10-13T06:09:25.005Z,13.90
2022-10-13T06:11:51.604Z,12.57
2022-10-13T06:14:18.205Z,13.20
2022-10-13T06:16:44.775Z,8.73
2022-10-13T06:19:11.412Z,7.50
2022-10-13T06:21:37.959Z,13.48
2022-10-13T06:24:04.837Z,13.20
2022-10-13T06:26:31.414Z,10.05
2022-10-13T06:28:59.780Z,13.55
2022-10-13T06:31:27.442Z,11.82
2022-10-13T06:33:54.035Z,10.73
2022-10-13T06:36:20.844Z,13.25
2022-10-13T06:38:47.426Z,11.98
2022-10-13T06:41:15.003Z,10.73
2022-10-13T06:43:41.893Z,14.10
2022-10-13T06:46:11.843Z,10.90
2022-10-13T06:48:38.525Z,11.68
2022-10-13T06:51:08.364Z,13.82
2022-10-13T06:53:35.198Z,14.52
2022-10-13T06:56:04.295Z,13.85
2022-10-13T06:58:31.020Z,9.73
2022-10-13T07:00:57.949Z,11.50
2022-10-13T07:03:25.358Z,12.20
2022-10-13T07:05:52.048Z,17.15
2022-10-13T07:08:19.108Z,12.20
2022-10-13T07:10:45.651Z,11.52
2022-10-13T07:13:12.318Z,15.27
2022-10-13T07:15:40.352Z,17.58
2022-10-13T07:18:07.500Z,11.48
2022-10-13T07:20:34.121Z,15.95
2022-10-13T07:23:01.000Z,13.95
2022-10-13T07:25:28.092Z,12.45
2022-10-13T07:27:54.846Z,15.38
2022-10-13T07:30:21.625Z,17.10
2022-10-13T07:32:48.419Z,12.85
2022-10-13T07:35:15.160Z,15.55
2022-10-13T07:37:41.835Z,11.20
2022-10-13T07:40:08.967Z,14.13
2022-10-13T07:42:35.639Z,10.57
2022-10-13T07:45:02.260Z,20.98
2022-10-13T07:47:29.650Z,16.88
2022-10-13T07:49:56.281Z,12.02
2022-10-13T07:52:23.265Z,19.92
2022-10-13T07:54:50.823Z,15.40
2022-10-13T07:57:17.993Z,18.73
2022-10-13T07:59:44.775Z,16.83
2022-10-13T08:02:13.282Z,13.35
2022-10-13T08:04:40.099Z,15.93
2022-10-13T08:07:07.356Z,11.85
2022-10-13T08:09:35.684Z,15.85
2022-10-13T08:12:02.228Z,10.60
2022-10-13T08:14:30.170Z,14.63
2022-10-13T08:16:57.822Z,19.42
2022-10-13T08:19:26.557Z,15.20
2022-10-13T08:21:58.824Z,14.18
2022-10-13T08:24:27.409Z,17.75
2022-10-13T08:26:54.370Z,15.30
2022-10-13T08:29:22.988Z,19.20
2022-10-13T08:31:51.973Z,16.27
2022-10-13T08:34:19.209Z,17.92
2022-10-13T08:36:45.850Z,14.65
2022-10-13T08:39:13.878Z,14.85
2022-10-13T08:41:46.055Z,16.02
2022-10-13T08:45:06.211Z,16.58
2022-10-13T08:47:41.726Z,15.75
2022-10-13T08:50:25.391Z,15.57
2022-10-13T08:52:54.778Z,15.20
2022-10-13T08:55:37.097Z,16.40
2022-10-13T08:58:13.233Z,17.20
2022-10-13T09:00:41.035Z,19.38
2022-10-13T09:03:23.274Z,17.50
2022-10-13T09:06:13.444Z,13.40
2022-10-13T09:08:53.752Z,13.98
2022-10-13T09:11:21.129Z,12.70
2022-10-13T09:13:47.768Z,18.42
2022-10-13T09:16:14.395Z,17.25
2022-10-13T09:18:41.020Z,15.15
2022-10-13T09:21:25.972Z,18.85
2022-10-13T09:24:05.678Z,17.65
2022-10-13T09:26:37.569Z,16.85
2022-10-13T09:29:15.937Z,19.48
2022-10-13T09:31:42.808Z,14.82
2022-10-13T09:34:19.965Z,19.85
2022-10-13T09:37:00.302Z,21.33
2022-10-13T09:39:27.839Z,20.40
2022-10-13T09:42:20.568Z,18.95
2022-10-13T09:44:56.079Z,17.27
2022-10-13T09:47:28.865Z,21.33
2022-10-13T09:50:18.896Z,15.68
2022-10-13T09:52:47.645Z,19.20
2022-10-13T09:55:32.410Z,20.70
2022-10-13T09:58:24.289Z,21.08
2022-10-13T10:00:53.789Z,18.85
2022-10-13T10:03:25.789Z,21.33
2022-10-13T10:05:58.360Z,18.02
2022-10-13T10:09:02.792Z,18.95
2022-10-13T10:11:42.015Z,18.35
2022-10-13T10:14:16.044Z,14.90
2022-10-13T10:16:53.387Z,15.95
2022-10-13T10:19:26.880Z,17.58
2022-10-13T10:22:12.958Z,15.52
2022-10-13T10:24:59.351Z,17.13
2022-10-13T10:28:06.812Z,20.40
2022-10-13T10:30:43.049Z,23.67
2022-10-13T10:33:31.074Z,19.42
2022-10-13T10:36:17.068Z,15.95
2022-10-13T10:39:00.511Z,19.80
2022-10-13T10:41:54.298Z,22.30
2022-10-13T10:44:26.809Z,20.80
2022-10-13T10:46:59.719Z,21.50
2022-10-13T10:49:39.402Z,20.38
2022-10-13T10:52:08.907Z,18.75
2022-10-13T10:54:51.822Z,19.90
2022-10-13T10:57:33.754Z,18.52
2022-10-13T11:00:06.329Z,16.67
2022-10-13T11:02:47.733Z,18.10
2022-10-13T11:05:18.494Z,14.27
2022-10-13T11:07:51.133Z,20.42
2022-10-13T11:10:21.499Z,17.75
2022-10-13T11:12:53.228Z,22.58
2022-10-13T11:15:31.185Z,18.88
2022-10-13T11:17:58.427Z,16.98
2022-10-13T11:20:35.859Z,16.38
2022-10-13T11:23:05.680Z,17.65
2022-10-13T11:26:37.566Z,15.55
2022-10-13T11:29:18.838Z,16.52
2022-10-13T11:31:53.019Z,18.05
2022-10-13T11:34:30.857Z,18.58
2022-10-13T11:37:03.191Z,17.80
2022-10-13T11:40:03.981Z,18.48
2022-10-13T11:42:56.928Z,17.05
2022-10-13T11:45:54.274Z,16.00
2022-10-13T11:48:45.614Z,18.23
2022-10-13T11:51:45.879Z,15.70
2022-10-13T11:54:42.814Z,19.45
2022-10-13T11:57:25.635Z,20.08
2022-10-13T11:59:59.388Z,18.70
2022-10-13T12:02:29.431Z,14.98
2022-10-13T12:05:06.269Z,18.02
2022-10-13T12:07:44.103Z,15.40
2022-10-13T12:10:23.667Z,15.10
2022-10-13T12:12:51.419Z,16.98
2022-10-13T12:15:33.680Z,14.40
2022-10-13T12:18:00.477Z,18.30
2022-10-13T12:20:35.340Z,17.33
2022-10-13T12:23:02.263Z,13.93
2022-10-13T12:25:30.795Z,15.30
2022-10-13T12:28:02.963Z,12.63
2022-10-13T12:30:37.450Z,14.20
2022-10-13T12:33:22.111Z,17.38
2022-10-13T12:35:48.867Z,15.57
2022-10-13T12:38:19.596Z,20.35
2022-10-13T12:40:54.905Z,14.73
2022-10-13T12:43:25.606Z,12.40
2022-10-13T12:45:52.725Z,13.27
2022-10-13T12:48:36.702Z,13.70
2022-10-13T12:51:23.910Z,15.57
2022-10-13T12:53:50.613Z,15.02
2022-10-13T12:56:27.741Z,10.95
2022-10-13T12:58:57.623Z,12.75
2022-10-13T13:01:38.067Z,13.35
2022-10-13T13:04:23.271Z,13.10
2022-10-13T13:07:04.869Z,16.55
2022-10-13T13:09:33.495Z,15.88
2022-10-13T13:12:12.443Z,16.08
2022-10-13T13:14:42.412Z,13.15
2022-10-13T13:17:38.835Z,13.80
2022-10-13T13:20:32.359Z,11.45
2022-10-13T13:23:01.470Z,13.68
2022-10-13T13:25:28.096Z,11.95
2022-10-13T13:27:57.923Z,17.67
2022-10-13T13:30:24.909Z,13.77
2022-10-13T13:32:51.793Z,14.50
2022-10-13T13:35:25.000Z,11.85
2022-10-13T13:37:54.088Z,10.90
2022-10-13T13:40:26.815Z,12.48
2022-10-13T13:42:54.607Z,14.00
2022-10-13T13:45:25.464Z,15.90
2022-10-13T13:47:59.600Z,11.15
2022-10-13T13:50:33.895Z,14.63
2022-10-13T13:53:01.011Z,15.50
2022-10-13T13:55:29.609Z,15.35
2022-10-13T13:57:57.161Z,15.15
2022-10-13T14:00:25.993Z,13.25
2022-10-13T14:02:58.558Z,13.93
2022-10-13T14:05:25.702Z,15.75
2022-10-13T14:07:57.770Z,15.45
2022-10-13T14:10:26.015Z,14.88
2022-10-13T14:12:52.792Z,10.77
2022-10-13T14:15:19.701Z,17.13
2022-10-13T14:17:46.360Z,14.02
2022-10-13T14:20:12.974Z,16.30
2022-10-13T14:22:43.136Z,18.40
2022-10-13T14:25:18.557Z,14.70
2022-10-13T14:27:47.973Z,12.95
2022-10-13T14:30:15.184Z,11.95
2022-10-13T14:32:45.435Z,15.07
2022-10-13T14:35:17.177Z,14.45
2022-10-13T14:37:49.993Z,16.00
2022-10-13T14:40:16.625Z,13.32
2022-10-13T14:42:44.465Z,14.55
2022-10-13T14:45:18.729Z,14.85
2022-10-13T14:47:51.328Z,13.25
2022-10-13T14:50:32.980Z,11.05
2022-10-13T14:53:02.819Z,11.85
2022-10-13T14:55:32.487Z,12.68
2022-10-13T14:58:05.415Z,13.77
2022-10-13T15:00:35.938Z,13.32
2022-10-13T15:03:04.159Z,14.30
2022-10-13T15:05:38.012Z,12.77
2022-10-13T15:08:08.005Z,13.73
2022-10-13T15:10:41.784Z,17.15
2022-10-13T15:13:10.243Z,11.10
2022-10-13T15:15:48.643Z,13.45
2022-10-13T15:18:19.448Z,17.30
2022-10-13T15:20:55.404Z,12.75
2022-10-13T15:23:25.948Z,12.73
2022-10-13T15:26:02.278Z,11.98
2022-10-13T15:28:35.333Z,10.07
2022-10-13T15:31:02.479Z,14.38
2022-10-13T15:33:31.046Z,14.90
2022-10-13T15:36:01.976Z,13.85
2022-10-13T15:38:35.965Z,19.63
2022-10-13T15:41:08.915Z,15.63
2022-10-13T15:43:35.762Z,15.20
2022-10-13T15:46:24.107Z,16.10
2022-10-13T15:48:51.920Z,15.65
2022-10-13T15:51:20.363Z,12.60
2022-10-13T15:53:48.353Z,12.80
2022-10-13T15:56:16.367Z,14.32
2022-10-13T15:58:42.919Z,13.82
2022-10-13T16:01:14.009Z,14.40
2022-10-13T16:03:41.366Z,14.93
2022-10-13T16:06:11.927Z,13.85
2022-10-13T16:08:43.733Z,15.23
2022-10-13T16:11:16.134Z,11.82
2022-10-13T16:13:49.856Z,11.38
2022-10-13T16:16:17.128Z,12.85
2022-10-13T16:18:44.938Z,14.05
2022-10-13T16:21:19.802Z,12.88
2022-10-13T16:23:47.502Z,13.35
2022-10-13T16:26:15.632Z,12.45
2022-10-13T16:28:42.373Z,11.55
2022-10-13T16:31:15.451Z,16.05
2022-10-13T16:33:44.231Z,22.67
2022-10-13T16:36:16.412Z,18.42
2022-10-13T16:38:44.445Z,11.43
2022-10-13T16:41:16.797Z,13.50
2022-10-13T16:43:44.555Z,12.32
2022-10-13T16:46:13.434Z,12.57
2022-10-13T16:48:45.011Z,13.00
2022-10-13T16:51:17.832Z,12.65
2022-10-13T16:53:48.083Z,12.13
2022-10-13T16:56:14.938Z,12.82
2022-10-13T16:58:45.264Z,12.02
2022-10-13T17:01:13.075Z,14.35
2022-10-13T17:03:42.970Z,15.73
2022-10-13T17:06:09.778Z,13.18
2022-10-13T17:08:37.462Z,13.80
2022-10-13T17:11:05.820Z,15.68
2022-10-13T17:13:34.289Z,15.82
2022-10-13T17:16:00.818Z,12.68
2022-10-13T17:18:27.786Z,13.45
2022-10-13T17:20:58.375Z,16.02
2022-10-13T17:23:25.732Z,13.85
2022-10-13T17:25:53.332Z,14.23
2022-10-13T17:28:23.297Z,15.63
2022-10-13T17:31:14.866Z,16.25
2022-10-13T17:33:44.031Z,11.38
2022-10-13T17:36:19.457Z,16.33
2022-10-13T17:38:47.953Z,17.35
2022-10-13T17:41:18.084Z,14.35
2022-10-13T17:43:49.635Z,14.50
2022-10-13T17:46:39.307Z,16.58
2022-10-13T17:49:11.152Z,26.48
2022-10-13T17:51:38.398Z,23.38
2022-10-13T17:54:05.563Z,16.30
2022-10-13T17:56:32.623Z,21.45
2022-10-13T17:59:00.509Z,18.38
2022-10-13T18:01:33.789Z,16.73
2022-10-13T18:04:03.632Z,18.73
2022-10-13T18:06:37.944Z,18.08
2022-10-13T18:09:10.758Z,18.88
2022-10-13T18:11:38.103Z,18.95
2022-10-13T18:14:05.706Z,21.92
2022-10-13T18:16:32.536Z,20.33
2022-10-13T18:18:59.033Z,22.27
2022-10-13T18:21:29.227Z,21.98
2022-10-13T18:24:01.402Z,21.42
2022-10-13T18:26:32.056Z,21.45
2022-10-13T18:28:59.173Z,17.63
2022-10-13T18:31:28.721Z,18.80
2022-10-13T18:34:10.661Z,21.23
2022-10-13T18:36:39.911Z,18.90
2022-10-13T18:39:12.798Z,21.90
2022-10-13T18:41:40.847Z,24.65
2022-10-13T18:44:08.179Z,19.98
2022-10-13T18:46:38.702Z,21.00
2022-10-13T18:49:13.032Z,23.48
2022-10-13T18:51:41.991Z,18.15
2022-10-13T18:54:08.629Z,20.33
2022-10-13T18:56:37.072Z,22.10
2022-10-13T18:59:06.126Z,25.00
2022-10-13T19:01:43.845Z,22.33
2022-10-13T19:04:15.090Z,26.15
2022-10-13T19:06:42.967Z,23.60
2022-10-13T19:09:13.136Z,21.60
2022-10-13T19:11:40.313Z,19.30
2022-10-13T19:14:10.856Z,24.08
2022-10-13T19:16:39.597Z,20.52
2022-10-13T19:19:08.857Z,23.60
2022-10-13T19:21:42.759Z,23.80
2022-10-13T19:24:11.541Z,22.13
2022-10-13T19:26:38.759Z,26.52
2022-10-13T19:29:08.983Z,18.98
2022-10-13T19:31:37.956Z,23.52
2022-10-13T19:34:06.803Z,20.33
2022-10-13T19:36:41.666Z,20.90
2022-10-13T19:39:15.903Z,25.42
2022-10-13T19:41:44.760Z,21.67
2022-10-13T19:44:11.832Z,21.55
2022-10-13T19:46:40.202Z,24.75
2022-10-13T19:49:07.456Z,24.50
2022-10-13T19:51:35.395Z,24.83
2022-10-13T19:54:02.218Z,23.48
2022-10-13T19:56:36.462Z,23.05
2022-10-13T19:59:06.351Z,20.27
2022-10-13T20:01:39.776Z,25.52
2022-10-13T20:04:13.228Z,22.48
2022-10-13T20:06:43.447Z,25.70
2022-10-13T20:09:10.086Z,24.30
2022-10-13T20:11:36.616Z,28.95
2022-10-13T20:14:03.633Z,25.17
2022-10-13T20:16:30.348Z,29.17
2022-10-13T20:18:59.355Z,22.77
2022-10-13T20:21:28.418Z,26.65
2022-10-13T20:23:55.697Z,24.20
2022-10-13T20:26:23.000Z,25.17
2022-10-13T20:28:50.739Z,23.63
2022-10-13T20:31:19.760Z,27.65
2022-10-13T20:33:47.107Z,22.83
2022-10-13T20:36:15.665Z,27.65
2022-10-13T20:38:42.436Z,24.73
2022-10-13T20:41:15.946Z,24.77
2022-10-13T20:43:42.830Z,28.98
2022-10-13T20:46:10.126Z,26.58
2022-10-13T20:49:05.179Z,31.73
2022-10-13T20:51:25.711Z,24.75
2022-10-13T20:53:52.618Z,25.55
2022-10-13T20:56:22.242Z,26.60
2022-10-13T20:58:50.106Z,29.42
2022-10-13T21:01:18.531Z,23.45
2022-10-13T21:03:45.159Z,29.15
2022-10-13T21:06:13.927Z,30.67
2022-10-13T21:08:40.870Z,25.10
2022-10-13T21:11:09.624Z,24.98
2022-10-13T21:13:39.163Z,27.20
2022-10-13T21:16:13.982Z,28.50
2022-10-13T21:18:43.176Z,27.98
2022-10-13T21:21:11.128Z,28.88
2022-10-13T21:23:39.732Z,29.52
2022-10-13T21:26:08.732Z,29.27
2022-10-13T21:28:39.323Z,29.48
2022-10-13T21:31:11.689Z,32.33
2022-10-13T21:33:39.536Z,36.25
2022-10-13T21:36:20.317Z,33.15
2022-10-13T21:38:52.042Z,28.05
2022-10-13T21:41:18.691Z,27.50
2022-10-13T21:43:45.322Z,31.20
2022-10-13T21:46:14.451Z,29.60
2022-10-13T21:49:03.574Z,33.20
2022-10-13T21:51:33.349Z,32.05
2022-10-13T21:54:06.597Z,28.92
2022-10-13T21:56:33.902Z,29.90
2022-10-13T21:59:01.352Z,32.13
2022-10-13T22:01:28.733Z,34.05
2022-10-13T22:04:00.357Z,30.30
2022-10-13T22:06:28.889Z,32.33
2022-10-13T22:08:57.732Z,31.42
2022-10-13T22:11:26.967Z,31.95
2022-10-13T22:13:55.290Z,31.67
2022-10-13T22:16:24.358Z,29.70
2022-10-13T22:18:53.242Z,29.95
2022-10-13T22:21:22.946Z,33.95
2022-10-13T22:23:50.001Z,31.55
2022-10-13T22:26:18.188Z,32.38
2022-10-13T22:28:48.170Z,30.65
2022-10-13T22:31:14.972Z,29.25
2022-10-13T22:33:42.938Z,33.60
2022-10-13T22:36:13.046Z,34.28
2022-10-13T22:38:39.698Z,28.08
2022-10-13T22:41:08.009Z,31.40
2022-10-13T22:43:35.831Z,33.35
2022-10-13T22:46:16.480Z,34.85
2022-10-13T22:48:43.807Z,31.77
2022-10-13T22:51:12.252Z,30.05
2022-10-13T22:53:39.359Z,31.13
2022-10-13T22:56:12.295Z,29.73
2022-10-13T22:58:39.265Z,32.58
2022-10-13T23:01:15.093Z,32.25
2022-10-13T23:03:42.503Z,29.65
2022-10-13T23:06:13.610Z,31.88
2022-10-13T23:08:40.550Z,29.27
2022-10-13T23:11:07.249Z,31.15
2022-10-13T23:13:33.851Z,36.95
2022-10-13T23:16:05.868Z,34.50
2022-10-13T23:18:37.591Z,35.08
2022-10-13T23:21:08.733Z,34.53
2022-10-13T23:23:35.521Z,34.85
2022-10-13T23:26:06.788Z,32.88
2022-10-13T23:28:33.918Z,33.22
2022-10-13T23:31:06.977Z,35.47
2022-10-13T23:33:34.506Z,34.10
2022-10-13T23:36:02.092Z,36.58
2022-10-13T23:38:30.489Z,33.47
2022-10-13T23:41:06.333Z,36.50
2022-10-13T23:43:34.274Z,31.02
2022-10-13T23:46:01.070Z,32.40
2022-10-13T23:48:28.392Z,33.15
2022-10-13T23:50:55.453Z,34.55
2022-10-13T23:53:22.244Z,36.03
2022-10-13T23:55:48.927Z,30.83
2022-10-13T23:58:15.606Z,32.33
